Time;durP1;ratioP1;P1;durP2;ratioP2;P2;SDS_P1;SDS_P2;PMS_P1;PMS_P2;Temp;Humidity;BMP_temperature;BMP_pressure;BME280_temperature;BME280_humidity;BME280_pressure;Samples;Min_cycle;Max_cycle;Signal;HPM_P1;HPM_P2
2022/06/04 00:00:14;;;;;;;8.07;7.20;;;16.20;99.90;;;;;;4990716;28;20469;-70
2022/06/04 00:02:41;;;;;;;8.17;7.47;;;16.10;99.90;;;;;;4990463;28;20573;-69
2022/06/04 00:05:12;;;;;;;8.10;7.40;;;16.10;99.90;;;;;;4991192;28;20518;-70
2022/06/04 00:07:38;;;;;;;9.00;7.43;;;16.10;99.90;;;;;;4991372;28;21189;-70
2022/06/04 00:15:38;;;;;;;8.70;7.90;;;16.10;99.90;;;;;;4991142;28;20492;-70
2022/06/04 00:18:05;;;;;;;8.37;7.67;;;16.00;99.90;;;;;;4990716;28;20457;-70
2022/06/04 00:20:33;;;;;;;8.03;7.23;;;16.00;99.90;;;;;;4991128;28;20454;-70
2022/06/04 00:23:01;;;;;;;7.70;6.93;;;16.00;99.90;;;;;;4991044;28;20505;-70
2022/06/04 00:25:28;;;;;;;8.30;7.60;;;16.00;99.90;;;;;;4991018;28;20468;-70
2022/06/04 00:27:58;;;;;;;7.80;7.10;;;15.90;99.90;;;;;;4990963;28;20498;-70
2022/06/04 00:30:25;;;;;;;9.03;7.80;;;15.90;99.90;;;;;;4991162;28;20521;-70
2022/06/04 00:32:52;;;;;;;8.63;7.83;;;15.90;99.90;;;;;;4990899;28;20908;-71
2022/06/04 00:35:19;;;;;;;10.00;8.10;;;15.90;99.90;;;;;;4991039;28;20465;-70
2022/06/04 00:37:48;;;;;;;11.33;8.40;;;15.90;99.90;;;;;;4991160;28;20485;-70
2022/06/04 00:40:25;;;;;;;9.37;8.50;;;15.90;99.90;;;;;;4990482;28;20493;-71
2022/06/04 00:42:55;;;;;;;8.93;8.10;;;15.90;99.90;;;;;;4991097;28;20481;-70
2022/06/04 00:45:58;;;;;;;9.33;8.30;;;15.80;99.90;;;;;;4990554;28;20469;-69
2022/06/04 00:48:25;;;;;;;8.37;7.67;;;15.80;99.90;;;;;;4990390;28;20469;-71
2022/06/04 00:50:52;;;;;;;8.40;7.63;;;15.70;99.90;;;;;;4990789;28;20486;-69
2022/06/04 00:53:20;;;;;;;8.60;7.80;;;15.70;99.90;;;;;;4990799;28;20857;-70
2022/06/04 00:56:12;;;;;;;8.77;7.97;;;15.70;99.90;;;;;;5094098;23;20489;-67
2022/06/04 00:58:48;;;;;;;8.33;7.63;;;15.70;99.90;;;;;;5089430;28;20464;-68
2022/06/04 01:01:23;;;;;;;8.27;7.40;;;15.60;99.90;;;;;;5089757;28;20468;-67
2022/06/04 01:03:59;;;;;;;8.40;7.70;;;15.60;99.90;;;;;;5089865;28;20593;-67
2022/06/04 01:06:45;;;;;;;7.97;7.27;;;15.60;99.90;;;;;;5090096;28;20464;-68
2022/06/04 01:09:39;;;;;;;7.60;7.00;;;15.60;99.90;;;;;;5089363;28;20461;-68
2022/06/04 01:12:21;;;;;;;8.30;7.60;;;15.60;99.90;;;;;;5089819;28;20493;-67
2022/06/04 01:15:02;;;;;;;8.63;7.93;;;15.60;99.90;;;;;;5092040;28;20457;-67
2022/06/04 01:17:38;;;;;;;7.90;7.20;;;15.50;99.90;;;;;;5093831;28;20840;-68
2022/06/04 01:20:17;;;;;;;8.27;7.57;;;15.50;99.90;;;;;;5092796;28;20468;-68
2022/06/04 01:23:10;;;;;;;7.90;7.30;;;15.50;99.90;;;;;;5093813;28;20469;-67
2022/06/04 01:25:50;;;;;;;8.30;7.50;;;15.50;99.90;;;;;;5093467;28;20945;-67
2022/06/04 01:28:18;;;;;;;8.20;7.40;;;15.50;99.90;;;;;;5092886;28;20461;-67
2022/06/04 01:30:47;;;;;;;8.77;7.97;;;15.40;99.90;;;;;;5093312;28;20488;-67
2022/06/04 01:33:19;;;;;;;8.80;7.90;;;15.40;99.90;;;;;;5093146;28;20523;-67
2022/06/04 01:35:52;;;;;;;8.97;8.07;;;15.50;99.90;;;;;;5093333;28;20507;-67
2022/06/04 01:38:24;;;;;;;8.60;7.80;;;15.40;99.90;;;;;;5092723;28;20967;-67
2022/06/04 01:41:05;;;;;;;8.37;7.67;;;15.40;99.90;;;;;;5093459;28;20886;-66
2022/06/04 01:43:38;;;;;;;9.00;8.20;;;15.40;99.90;;;;;;5093059;28;20534;-68
2022/06/04 01:46:11;;;;;;;10.23;9.30;;;15.40;99.90;;;;;;5092993;28;20468;-67
2022/06/04 01:48:42;;;;;;;8.87;8.13;;;15.40;99.90;;;;;;5092458;28;20462;-67
2022/06/04 01:51:10;;;;;;;8.63;7.93;;;15.30;99.90;;;;;;5092903;28;20481;-67
2022/06/04 01:53:40;;;;;;;8.03;7.33;;;15.30;99.90;;;;;;5092684;28;20474;-68
2022/06/04 01:56:11;;;;;;;9.23;8.33;;;15.30;99.90;;;;;;5092771;28;20465;-67
2022/06/04 01:58:42;;;;;;;9.70;8.80;;;15.20;99.90;;;;;;5092467;28;20461;-67
2022/06/04 02:01:12;;;;;;;7.63;6.93;;;15.20;99.90;;;;;;5092607;28;20449;-68
2022/06/04 02:03:43;;;;;;;8.20;7.50;;;15.20;99.90;;;;;;5092853;28;20481;-67
2022/06/04 02:06:12;;;;;;;9.33;8.43;;;15.10;99.90;;;;;;5092423;28;20463;-67
2022/06/04 02:08:43;;;;;;;8.27;7.57;;;15.10;99.90;;;;;;5092243;28;20489;-67
2022/06/04 02:11:13;;;;;;;8.87;8.17;;;15.10;99.90;;;;;;5092334;28;20897;-68
2022/06/04 02:13:42;;;;;;;8.77;7.87;;;15.10;99.90;;;;;;5092663;28;20493;-67
2022/06/04 02:16:15;;;;;;;8.80;8.10;;;15.10;99.90;;;;;;5092272;28;20468;-67
2022/06/04 02:18:42;;;;;;;8.90;8.10;;;15.10;99.90;;;;;;5092074;28;20461;-68
2022/06/04 02:21:09;;;;;;;8.03;7.33;;;15.10;99.90;;;;;;5092319;28;20464;-68
2022/06/04 02:23:37;;;;;;;8.73;8.03;;;15.10;99.90;;;;;;5091925;28;20988;-68
2022/06/04 02:26:03;;;;;;;8.40;7.70;;;15.00;99.90;;;;;;5091468;28;20460;-67
2022/06/04 02:28:31;;;;;;;8.70;7.90;;;15.10;99.90;;;;;;5091493;28;20468;-67
2022/06/04 02:31:10;;;;;;;8.57;7.73;;;15.10;99.90;;;;;;5092367;28;20465;-68
2022/06/04 02:33:45;;;;;;;8.60;7.80;;;15.00;99.90;;;;;;5092048;28;20486;-68
2022/06/04 02:36:20;;;;;;;8.13;7.53;;;15.00;99.90;;;;;;5092106;28;20963;-68
2022/06/04 02:38:55;;;;;;;8.30;7.60;;;14.90;99.90;;;;;;5091637;28;20616;-67
2022/06/04 02:41:26;;;;;;;8.87;8.17;;;14.90;99.90;;;;;;5092148;28;20464;-67
2022/06/04 02:44:01;;;;;;;9.70;8.80;;;14.90;99.90;;;;;;5092044;28;20477;-68
2022/06/04 02:46:34;;;;;;;9.10;8.30;;;14.90;99.90;;;;;;5091880;28;20484;-67
2022/06/04 02:49:06;;;;;;;8.10;7.40;;;14.90;99.90;;;;;;5091341;28;20470;-67
2022/06/04 02:51:36;;;;;;;8.13;7.43;;;14.90;99.90;;;;;;5091670;28;20847;-67
2022/06/04 02:54:06;;;;;;;8.10;7.40;;;14.90;99.90;;;;;;5091570;28;20477;-68
2022/06/04 02:56:36;;;;;;;8.43;7.20;;;14.90;99.90;;;;;;5091559;28;20472;-67
2022/06/04 02:59:06;;;;;;;7.80;7.00;;;14.90;99.90;;;;;;5091047;28;20457;-66
2022/06/04 03:01:38;;;;;;;8.77;8.07;;;14.90;99.90;;;;;;5091891;28;20528;-66
2022/06/04 03:04:07;;;;;;;7.20;6.60;;;14.90;99.90;;;;;;5091173;28;20512;-67
2022/06/04 03:06:34;;;;;;;7.60;7.00;;;14.80;99.90;;;;;;5091577;28;20458;-67
2022/06/04 03:09:04;;;;;;;6.70;6.10;;;14.80;99.90;;;;;;5090573;28;20481;-66
2022/06/04 03:11:32;;;;;;;7.73;6.90;;;14.80;99.90;;;;;;5091564;28;20489;-67
2022/06/04 03:13:59;;;;;;;8.10;7.30;;;14.80;99.90;;;;;;5090930;28;20898;-68
2022/06/04 03:16:36;;;;;;;7.97;7.17;;;14.80;99.90;;;;;;5091561;28;20485;-66
2022/06/04 03:19:03;;;;;;;7.17;6.57;;;14.80;99.90;;;;;;5090544;28;20464;-68
2022/06/04 03:21:30;;;;;;;7.60;7.00;;;14.80;99.90;;;;;;5091085;28;20827;-67
2022/06/04 03:23:57;;;;;;;7.97;7.30;;;14.80;99.90;;;;;;5091049;28;20481;-68
2022/06/04 03:26:23;;;;;;;8.10;7.40;;;14.70;99.90;;;;;;5091061;28;20464;-67
2022/06/04 03:28:50;;;;;;;8.23;7.40;;;14.70;99.90;;;;;;5090600;28;20553;-67
2022/06/04 03:31:17;;;;;;;7.50;6.90;;;14.80;99.90;;;;;;5090714;28;20462;-68
2022/06/04 03:33:45;;;;;;;7.30;6.70;;;14.80;99.90;;;;;;5091036;28;20901;-70
2022/06/04 03:36:12;;;;;;;7.37;6.67;;;14.70;99.90;;;;;;5090870;28;20465;-67
2022/06/04 03:38:39;;;;;;;7.30;6.43;;;14.70;99.90;;;;;;5090270;28;20458;-68
2022/06/04 03:41:05;;;;;;;8.33;7.70;;;14.80;99.90;;;;;;5090785;28;20468;-66
2022/06/04 03:43:32;;;;;;;8.87;8.07;;;14.80;99.90;;;;;;5090531;28;20477;-68
2022/06/04 03:45:59;;;;;;;9.43;7.50;;;14.80;99.90;;;;;;5090864;28;20457;-68
2022/06/04 03:48:26;;;;;;;9.53;8.37;;;14.80;99.90;;;;;;5090033;28;20458;-67
2022/06/04 03:50:54;;;;;;;7.90;7.20;;;14.80;99.90;;;;;;5090898;28;20457;-67
2022/06/04 03:53:20;;;;;;;7.97;6.73;;;15.00;99.90;;;;;;5090458;28;20493;-67
2022/06/04 03:55:47;;;;;;;7.40;6.80;;;15.00;99.90;;;;;;5090337;28;20461;-67
2022/06/04 03:58:14;;;;;;;8.13;7.43;;;15.10;99.90;;;;;;5089815;28;20461;-68
2022/06/04 04:00:44;;;;;;;7.77;6.97;;;15.10;99.90;;;;;;5091210;28;20470;-67
2022/06/04 04:03:13;;;;;;;7.53;6.87;;;15.10;99.90;;;;;;5090516;28;20512;-67
2022/06/04 04:05:45;;;;;;;7.80;7.00;;;15.20;99.90;;;;;;5090356;28;20480;-67
2022/06/04 04:08:14;;;;;;;7.93;7.33;;;15.20;99.90;;;;;;5089844;28;20468;-67
2022/06/04 04:10:42;;;;;;;7.47;6.77;;;15.30;99.90;;;;;;5090808;28;20831;-67
2022/06/04 04:13:11;;;;;;;6.97;6.37;;;15.30;99.90;;;;;;5089830;28;20507;-67
2022/06/04 04:15:38;;;;;;;8.70;6.90;;;15.30;99.90;;;;;;5090395;28;20457;-67
2022/06/04 04:18:06;;;;;;;7.70;7.03;;;15.30;99.90;;;;;;5089504;28;20462;-68
2022/06/04 04:20:35;;;;;;;9.00;8.20;;;15.30;99.90;;;;;;5090643;28;20461;-68
2022/06/04 04:23:04;;;;;;;7.83;6.90;;;15.40;99.90;;;;;;5089961;28;20485;-67
2022/06/04 04:25:33;;;;;;;8.47;7.57;;;15.40;99.90;;;;;;5090676;28;20892;-67
2022/06/04 04:28:00;;;;;;;7.93;7.23;;;15.40;99.90;;;;;;5089853;28;20457;-66
2022/06/04 04:30:30;;;;;;;8.07;7.27;;;15.40;99.90;;;;;;5090115;28;20464;-67
2022/06/04 04:32:58;;;;;;;7.67;7.03;;;15.40;99.90;;;;;;5090031;28;20490;-67
2022/06/04 04:35:27;;;;;;;8.93;8.03;;;15.50;99.90;;;;;;5089981;28;20468;-67
2022/06/04 04:37:55;;;;;;;7.83;7.13;;;15.60;99.90;;;;;;5090622;28;20477;-67
2022/06/04 04:40:23;;;;;;;11.00;8.00;;;15.70;99.90;;;;;;5090356;28;20461;-66
2022/06/04 04:42:52;;;;;;;7.90;7.20;;;15.80;99.90;;;;;;5090156;28;20477;-67
2022/06/04 04:45:21;;;;;;;7.27;6.67;;;15.80;99.90;;;;;;5089850;28;20458;-67
2022/06/04 04:47:48;;;;;;;8.03;7.30;;;15.90;99.90;;;;;;5089954;28;20457;-68
2022/06/04 04:50:19;;;;;;;7.93;7.23;;;16.10;99.90;;;;;;5092309;28;20458;-68
2022/06/04 04:52:46;;;;;;;8.20;7.40;;;16.20;99.90;;;;;;5093808;28;20481;-67
2022/06/04 04:55:14;;;;;;;8.60;7.90;;;16.30;99.90;;;;;;5093639;28;20798;-67
2022/06/04 04:57:41;;;;;;;8.50;7.63;;;16.40;99.90;;;;;;5093913;28;20845;-66
2022/06/04 05:00:11;;;;;;;9.00;8.27;;;16.50;99.90;;;;;;5093237;28;20552;-67
2022/06/04 05:02:38;;;;;;;8.23;7.53;;;16.50;99.90;;;;;;5093837;28;20477;-67
2022/06/04 05:05:06;;;;;;;8.80;8.03;;;16.60;99.90;;;;;;5093493;28;20461;-68
2022/06/04 05:07:33;;;;;;;8.50;7.80;;;16.60;99.90;;;;;;5093927;28;20461;-67
2022/06/04 05:10:00;;;;;;;9.40;8.00;;;16.60;99.90;;;;;;5093030;28;20464;-67
2022/06/04 05:12:26;;;;;;;8.57;7.77;;;16.60;99.90;;;;;;5093545;28;20481;-67
2022/06/04 05:14:53;;;;;;;8.23;7.10;;;16.70;99.90;;;;;;5093456;28;20468;-67
2022/06/04 05:17:21;;;;;;;7.40;6.80;;;16.70;99.90;;;;;;5093476;28;20488;-67
2022/06/04 05:19:48;;;;;;;7.20;6.50;;;16.80;99.90;;;;;;5092785;28;20823;-67
2022/06/04 05:22:14;;;;;;;6.00;5.50;;;16.80;99.90;;;;;;5093253;28;20465;-67
2022/06/04 05:24:43;;;;;;;6.90;6.20;;;16.90;99.90;;;;;;5093381;28;20484;-67
2022/06/04 05:27:10;;;;;;;6.83;6.17;;;17.00;99.90;;;;;;5093200;28;20453;-69
2022/06/04 05:29:37;;;;;;;7.17;6.57;;;17.10;99.90;;;;;;5093027;28;20457;-68
2022/06/04 05:32:05;;;;;;;7.63;6.77;;;17.20;99.90;;;;;;5092973;28;20485;-69
2022/06/04 05:34:34;;;;;;;5.73;5.33;;;17.20;99.90;;;;;;5092904;28;20458;-66
2022/06/04 05:37:02;;;;;;;5.40;4.97;;;17.30;99.90;;;;;;5092909;28;20468;-67
2022/06/04 05:39:31;;;;;;;5.90;5.20;;;17.30;99.90;;;;;;5092344;28;20461;-68
2022/06/04 05:41:59;;;;;;;5.30;4.80;;;17.30;99.90;;;;;;5092878;28;21017;-66
2022/06/04 05:44:26;;;;;;;6.10;5.50;;;17.40;99.90;;;;;;5092674;28;20488;-67
2022/06/04 05:46:53;;;;;;;5.50;5.00;;;17.40;99.90;;;;;;5093115;28;20987;-68
2022/06/04 05:49:20;;;;;;;5.43;5.03;;;17.50;99.90;;;;;;5092062;28;20968;-67
2022/06/04 05:51:51;;;;;;;5.93;5.43;;;17.50;99.90;;;;;;5092900;28;20462;-66
2022/06/04 05:54:18;;;;;;;5.87;5.30;;;17.50;99.90;;;;;;5092469;28;20480;-67
2022/06/04 05:56:47;;;;;;;5.90;5.40;;;17.50;99.90;;;;;;5092845;28;20472;-66
2022/06/04 05:59:17;;;;;;;5.77;5.27;;;17.40;99.90;;;;;;5091965;28;20454;-67
2022/06/04 06:01:45;;;;;;;5.43;4.93;;;17.40;99.90;;;;;;5091493;28;20462;-67
2022/06/04 06:04:14;;;;;;;5.80;5.30;;;17.40;99.90;;;;;;5092525;28;20473;-66
2022/06/04 06:06:42;;;;;;;5.80;5.30;;;17.30;99.90;;;;;;5092314;28;20472;-67
2022/06/04 06:09:12;;;;;;;6.13;5.27;;;17.30;99.90;;;;;;5092374;28;20939;-66
2022/06/04 06:11:42;;;;;;;6.20;5.20;;;17.30;99.90;;;;;;5092317;28;20476;-68
2022/06/04 06:14:09;;;;;;;6.00;5.27;;;17.30;99.90;;;;;;5092469;28;20489;-67
2022/06/04 06:16:40;;;;;;;8.47;5.90;;;17.30;99.90;;;;;;5092170;28;20829;-67
2022/06/04 06:19:07;;;;;;;6.37;5.77;;;17.30;99.90;;;;;;5091913;28;20953;-67
2022/06/04 06:21:36;;;;;;;7.20;5.87;;;17.20;99.90;;;;;;5091976;28;20735;-67
2022/06/04 06:24:03;;;;;;;6.60;6.03;;;17.20;99.90;;;;;;5092039;28;21001;-66
2022/06/04 06:26:33;;;;;;;6.80;6.10;;;17.20;99.90;;;;;;5091994;28;20458;-66
2022/06/04 06:29:02;;;;;;;6.97;6.37;;;17.20;99.90;;;;;;5091525;28;20490;-67
2022/06/04 06:31:29;;;;;;;8.47;6.70;;;17.20;99.90;;;;;;5092176;28;20464;-67
2022/06/04 06:33:56;;;;;;;10.10;6.77;;;17.20;99.90;;;;;;5091790;28;20489;-66
2022/06/04 06:36:23;;;;;;;6.10;5.60;;;17.20;99.90;;;;;;5092151;28;20489;-66
2022/06/04 06:38:50;;;;;;;6.40;5.90;;;17.20;99.90;;;;;;5091216;28;20465;-66
2022/06/04 06:41:20;;;;;;;7.30;6.70;;;17.20;99.90;;;;;;5091910;28;20461;-67
2022/06/04 06:43:50;;;;;;;7.00;6.30;;;17.30;99.90;;;;;;5091797;28;20501;-67
2022/06/04 06:46:19;;;;;;;6.80;6.20;;;17.30;99.90;;;;;;5091585;28;20814;-69
2022/06/04 06:48:48;;;;;;;9.27;6.70;;;17.30;99.90;;;;;;5091410;28;21134;-67
2022/06/04 06:51:17;;;;;;;7.30;6.70;;;17.40;99.90;;;;;;5091404;28;20453;-66
2022/06/04 06:53:45;;;;;;;7.30;6.63;;;17.50;99.90;;;;;;5091709;28;21051;-65
2022/06/04 06:56:15;;;;;;;7.70;7.00;;;17.60;99.90;;;;;;5150690;22;20494;-72
2022/06/04 06:58:42;;;;;;;10.10;6.70;;;17.70;99.90;;;;;;5070868;28;20450;-72
2022/06/04 07:01:12;;;;;;;6.50;5.90;;;17.60;99.90;;;;;;5071649;28;20944;-72
2022/06/04 07:03:39;;;;;;;7.43;6.73;;;17.70;99.90;;;;;;5057987;28;20529;-73
2022/06/04 07:06:07;;;;;;;6.50;6.00;;;17.70;99.90;;;;;;5051323;28;20977;-70
2022/06/04 07:08:34;;;;;;;6.80;6.20;;;17.70;99.90;;;;;;5050528;28;20486;-70
2022/06/04 07:11:01;;;;;;;7.47;6.77;;;17.80;99.90;;;;;;5051264;28;21056;-71
2022/06/04 07:13:28;;;;;;;8.50;7.13;;;17.80;99.90;;;;;;5050595;28;20491;-71
2022/06/04 07:15:55;;;;;;;10.93;7.77;;;17.80;99.90;;;;;;5051116;28;20460;-70
2022/06/04 07:18:24;;;;;;;9.60;8.40;;;17.80;99.90;;;;;;5050586;28;20466;-71
2022/06/04 07:20:51;;;;;;;7.50;6.80;;;17.80;99.90;;;;;;5051011;28;20854;-70
2022/06/04 07:23:18;;;;;;;8.27;7.40;;;17.80;99.90;;;;;;5050631;28;20657;-71
2022/06/04 07:25:46;;;;;;;8.87;8.00;;;17.90;99.90;;;;;;5051241;28;20888;-72
2022/06/04 07:28:14;;;;;;;10.23;7.80;;;18.00;99.90;;;;;;5050670;28;20459;-72
2022/06/04 07:30:41;;;;;;;9.33;8.43;;;18.10;99.90;;;;;;5050954;28;21268;-73
2022/06/04 07:33:08;;;;;;;8.80;7.90;;;18.30;99.90;;;;;;5050949;28;20491;-73
2022/06/04 07:35:36;;;;;;;7.10;6.50;;;18.50;99.90;;;;;;5051000;28;20463;-72
2022/06/04 07:38:03;;;;;;;8.10;7.40;;;18.70;99.90;;;;;;5050008;28;20482;-72
2022/06/04 07:40:29;;;;;;;7.20;6.50;;;18.80;99.90;;;;;;5050536;28;20470;-72
2022/06/04 07:42:56;;;;;;;7.63;6.93;;;18.90;99.90;;;;;;5049665;28;20479;-72
2022/06/04 07:45:23;;;;;;;6.53;5.87;;;19.00;99.90;;;;;;5050961;28;20545;-72
2022/06/04 07:47:50;;;;;;;7.50;6.33;;;19.00;99.90;;;;;;5050824;28;20517;-72
2022/06/04 07:50:17;;;;;;;8.03;7.23;;;19.10;99.90;;;;;;5050327;28;20463;-73
2022/06/04 07:52:45;;;;;;;7.23;6.60;;;19.20;99.90;;;;;;5050746;28;20494;-72
2022/06/04 07:55:12;;;;;;;7.40;6.70;;;19.30;99.90;;;;;;5050400;28;20954;-72
2022/06/04 07:57:40;;;;;;;6.93;6.23;;;19.40;99.90;;;;;;5050905;28;20474;-72
2022/06/04 08:00:10;;;;;;;6.50;6.00;;;19.40;99.90;;;;;;5050089;28;20812;-73
2022/06/04 08:02:37;;;;;;;6.87;6.17;;;19.50;99.90;;;;;;5050629;28;20571;-72
2022/06/04 08:05:04;;;;;;;6.67;6.07;;;19.60;99.90;;;;;;5050399;28;20467;-73
2022/06/04 08:07:30;;;;;;;7.83;6.40;;;19.70;99.90;;;;;;5050485;28;20459;-72
2022/06/04 08:09:59;;;;;;;6.80;6.20;;;19.80;99.90;;;;;;5049822;28;20466;-72
2022/06/04 08:12:29;;;;;;;8.03;6.50;;;20.00;99.90;;;;;;5050329;28;20570;-72
2022/06/04 08:14:56;;;;;;;7.03;6.33;;;20.20;99.90;;;;;;5050522;28;20942;-72
2022/06/04 08:17:25;;;;;;;7.53;6.73;;;20.40;99.90;;;;;;5050308;28;21012;-72
2022/06/04 08:19:52;;;;;;;6.87;6.17;;;20.50;99.90;;;;;;5049979;28;20843;-72
2022/06/04 08:22:19;;;;;;;11.43;7.00;;;20.60;99.90;;;;;;5049401;28;20466;-72
2022/06/04 08:24:47;;;;;;;7.10;6.50;;;20.60;99.90;;;;;;5049527;28;20494;-72
2022/06/04 08:27:16;;;;;;;7.93;7.23;;;20.60;99.90;;;;;;5049691;28;20485;-72
2022/06/04 08:29:44;;;;;;;6.63;6.13;;;20.60;99.90;;;;;;5049511;28;20455;-72
2022/06/04 08:32:12;;;;;;;8.07;7.00;;;20.70;99.90;;;;;;5049661;28;20463;-73
2022/06/04 08:34:39;;;;;;;6.50;6.00;;;21.00;99.90;;;;;;5049768;28;21046;-73
2022/06/04 08:37:06;;;;;;;10.00;8.90;;;21.20;99.90;;;;;;5050313;28;20470;-73
2022/06/04 08:39:33;;;;;;;7.30;6.67;;;21.30;99.90;;;;;;5049797;28;20459;-72
2022/06/04 08:42:17;;;;;;;7.90;7.10;;;21.40;99.90;;;;;;5050135;28;20463;-72
2022/06/04 08:44:49;;;;;;;6.03;5.53;;;21.50;99.90;;;;;;5050433;28;20455;-72
2022/06/04 08:47:18;;;;;;;5.90;5.30;;;21.60;99.90;;;;;;5050275;28;20464;-72
2022/06/04 08:49:48;;;;;;;6.97;5.07;;;21.70;99.90;;;;;;5049845;28;20463;-72
2022/06/04 08:52:18;;;;;;;7.53;5.03;;;21.70;99.90;;;;;;5050076;28;20463;-72
2022/06/04 08:57:40;;;;;;;5.30;4.80;;;22.00;99.90;;;;;;5050064;28;20852;-72
2022/06/04 09:00:14;;;;;;;5.97;5.57;;;22.10;99.90;;;;;;5049514;28;20459;-72
2022/06/04 09:02:59;;;;;;;5.60;5.10;;;22.20;99.90;;;;;;5050221;28;20861;-72
2022/06/04 09:05:32;;;;;;;5.83;5.23;;;22.20;99.90;;;;;;5049731;28;20463;-72
2022/06/04 09:08:03;;;;;;;7.13;4.80;;;22.30;99.90;;;;;;5049779;28;20550;-73
2022/06/04 09:10:33;;;;;;;5.80;5.30;;;22.30;99.90;;;;;;5050065;28;20463;-72
2022/06/04 09:13:09;;;;;;;7.60;6.27;;;22.50;99.90;;;;;;5049863;28;20483;-72
2022/06/04 09:15:41;;;;;;;4.93;4.50;;;22.60;99.90;;;;;;5049791;28;20462;-72
2022/06/04 09:18:14;;;;;;;6.87;6.20;;;22.70;99.90;;;;;;5049618;28;20463;-72
2022/06/04 09:20:44;;;;;;;6.20;5.13;;;22.80;99.90;;;;;;5049896;28;20459;-73
2022/06/04 09:23:19;;;;;;;6.03;4.83;;;22.90;99.90;;;;;;5049782;28;20481;-73
2022/06/04 09:25:47;;;;;;;4.10;3.80;;;23.10;99.90;;;;;;5049891;28;20516;-72
2022/06/04 09:28:29;;;;;;;5.37;4.40;;;23.20;99.90;;;;;;5049209;28;20831;-73
2022/06/04 09:31:07;;;;;;;4.00;3.70;;;23.30;99.90;;;;;;5049895;28;20471;-73
2022/06/04 09:33:54;;;;;;;4.93;4.50;;;23.40;99.90;;;;;;5049567;28;20491;-73
2022/06/04 09:36:25;;;;;;;5.10;4.60;;;23.50;99.90;;;;;;5051704;28;20460;-72
2022/06/04 09:38:56;;;;;;;5.10;4.60;;;23.50;99.90;;;;;;5052555;28;20464;-73
2022/06/04 09:41:24;;;;;;;4.37;4.07;;;23.50;99.90;;;;;;5052754;28;20459;-72
2022/06/04 09:44:01;;;;;;;4.60;4.10;;;23.40;99.90;;;;;;5053160;28;20507;-72
2022/06/04 09:46:29;;;;;;;5.90;4.50;;;23.30;99.90;;;;;;5052854;28;20561;-73
2022/06/04 09:48:56;;;;;;;5.17;4.67;;;23.20;99.90;;;;;;5052423;28;20464;-72
2022/06/04 09:51:25;;;;;;;5.70;4.37;;;23.10;99.90;;;;;;5047887;28;20460;-73
2022/06/04 09:53:57;;;;;;;5.10;4.70;;;23.00;99.90;;;;;;5040429;28;20491;-73
2022/06/04 09:56:33;;;;;;;4.90;4.50;;;22.80;99.90;;;;;;5046807;28;20479;-73
2022/06/04 09:59:18;;;;;;;4.93;4.53;;;22.80;99.90;;;;;;5038302;28;20462;-72
2022/06/04 10:01:55;;;;;;;4.43;4.00;;;22.70;99.90;;;;;;5048129;28;20537;-72
2022/06/04 10:04:24;;;;;;;5.13;4.63;;;22.60;99.90;;;;;;5036623;28;20460;-72
2022/06/04 10:06:51;;;;;;;5.40;4.90;;;22.50;99.90;;;;;;5048280;28;20460;-72
2022/06/04 10:12:08;;;;;;;6.10;5.60;;;22.30;99.90;;;;;;5051301;28;20438;-72
2022/06/04 10:14:37;;;;;;;7.17;6.57;;;22.10;99.90;;;;;;5051311;28;20863;-71
2022/06/04 10:17:07;;;;;;;6.87;5.60;;;21.90;99.90;;;;;;5051324;28;21029;-73
2022/06/04 10:19:35;;;;;;;7.77;7.07;;;21.70;99.90;;;;;;5050177;28;20467;-72
2022/06/04 10:22:06;;;;;;;7.23;6.67;;;21.60;99.90;;;;;;5048280;28;20467;-72
2022/06/04 10:24:47;;;;;;;8.20;6.47;;;21.40;99.90;;;;;;5050852;28;20826;-72
2022/06/04 10:27:36;;;;;;;7.07;6.47;;;21.40;99.90;;;;;;5050924;28;20455;-72
2022/06/04 10:30:13;;;;;;;7.07;5.80;;;21.40;99.90;;;;;;5046668;28;20460;-72
2022/06/04 10:32:54;;;;;;;5.93;5.53;;;21.40;99.90;;;;;;5050659;28;20836;-71
2022/06/04 10:35:31;;;;;;;6.70;6.10;;;21.30;99.90;;;;;;5050489;28;20945;-71
2022/06/04 10:38:11;;;;;;;8.97;8.27;;;21.30;99.90;;;;;;5050857;28;20464;-72
2022/06/04 10:40:49;;;;;;;9.63;8.67;;;21.20;99.90;;;;;;5050712;28;20466;-71
2022/06/04 10:43:27;;;;;;;8.77;8.03;;;21.10;99.90;;;;;;5047867;28;21033;-73
2022/06/04 10:46:08;;;;;;;8.43;7.73;;;21.10;99.90;;;;;;5050735;28;20463;-72
2022/06/04 10:48:47;;;;;;;10.63;9.47;;;21.10;99.90;;;;;;5048709;28;20459;-72
2022/06/04 10:51:26;;;;;;;9.33;8.40;;;21.10;99.90;;;;;;5050210;28;20748;-72
2022/06/04 10:54:08;;;;;;;8.50;7.70;;;21.00;99.90;;;;;;5050312;28;20589;-72
2022/06/04 10:56:40;;;;;;;8.10;7.40;;;21.00;99.90;;;;;;5049635;28;20887;-72
2022/06/04 10:59:15;;;;;;;8.07;7.30;;;21.00;99.90;;;;;;5049179;28;21032;-72
2022/06/04 11:01:48;;;;;;;10.00;8.67;;;20.90;99.90;;;;;;5050256;28;20513;-72
2022/06/04 11:04:26;;;;;;;10.07;9.17;;;20.90;99.90;;;;;;5049372;28;20484;-72
2022/06/04 11:06:58;;;;;;;9.00;8.30;;;20.70;99.90;;;;;;5045591;28;20470;-72
2022/06/04 11:09:34;;;;;;;10.10;9.20;;;20.70;99.90;;;;;;5028640;28;20486;-70
2022/06/04 11:12:05;;;;;;;10.43;9.53;;;20.70;99.90;;;;;;5050187;28;20467;-71
2022/06/04 11:14:41;;;;;;;9.70;8.90;;;20.70;99.90;;;;;;5050669;28;20537;-70
2022/06/04 11:17:16;;;;;;;10.00;9.10;;;20.60;99.90;;;;;;5050092;28;20462;-70
2022/06/04 11:19:55;;;;;;;10.07;9.17;;;20.60;99.90;;;;;;5049279;28;20455;-71
2022/06/04 11:22:27;;;;;;;10.77;8.67;;;20.50;99.90;;;;;;5049979;28;20468;-70
2022/06/04 11:24:59;;;;;;;11.33;8.57;;;20.50;99.90;;;;;;5049544;28;20462;-71
2022/06/04 11:27:33;;;;;;;9.43;8.43;;;20.50;99.90;;;;;;5037003;28;20475;-73
2022/06/04 11:30:02;;;;;;;9.50;8.70;;;20.50;99.90;;;;;;5027556;28;20472;-70
2022/06/04 11:32:37;;;;;;;10.10;9.10;;;20.50;99.90;;;;;;5030009;28;20488;-73
2022/06/04 11:35:24;;;;;;;8.53;7.73;;;20.40;99.90;;;;;;5040487;28;20491;-73
2022/06/04 11:38:33;;;;;;;9.20;8.40;;;20.40;99.90;;;;;;5049750;28;20841;-73
2022/06/04 11:41:16;;;;;;;10.13;9.33;;;20.40;99.90;;;;;;5049040;28;20478;-72
2022/06/04 11:43:57;;;;;;;10.10;9.27;;;20.40;99.90;;;;;;5049898;28;20471;-71
2022/06/04 11:46:37;;;;;;;10.20;9.30;;;20.40;99.90;;;;;;5049378;28;21025;-72
2022/06/04 11:49:19;;;;;;;7.97;7.27;;;20.40;99.90;;;;;;5048940;28;20466;-73
2022/06/04 11:52:06;;;;;;;11.20;10.17;;;20.50;99.90;;;;;;5049963;28;20542;-73
2022/06/04 11:54:53;;;;;;;10.00;9.20;;;20.50;99.90;;;;;;5049234;28;20522;-72
2022/06/04 11:57:37;;;;;;;9.13;8.33;;;20.60;99.90;;;;;;5049101;28;20501;-73
2022/06/04 12:00:17;;;;;;;9.73;8.93;;;20.60;99.90;;;;;;5048193;28;20621;-72
2022/06/04 12:02:53;;;;;;;8.90;8.10;;;20.70;99.90;;;;;;5049920;28;20854;-72
2022/06/04 12:05:41;;;;;;;10.07;9.27;;;20.70;99.90;;;;;;5049312;28;20447;-72
2022/06/04 12:08:12;;;;;;;10.10;9.23;;;20.90;99.90;;;;;;5049413;28;20459;-72
2022/06/04 12:11:06;;;;;;;12.60;11.40;;;21.00;99.90;;;;;;5043713;28;20466;-72
2022/06/04 12:13:43;;;;;;;10.73;9.83;;;21.10;99.90;;;;;;5047550;28;20483;-72
2022/06/04 12:16:14;;;;;;;12.17;11.10;;;21.20;99.90;;;;;;5049153;28;20466;-71
2022/06/04 12:18:46;;;;;;;12.00;11.07;;;21.20;99.90;;;;;;5048016;28;20506;-72
2022/06/04 12:24:18;;;;;;;13.10;11.90;;;21.50;99.90;;;;;;5048322;28;20455;-71
2022/06/04 12:26:48;;;;;;;11.83;10.77;;;21.90;99.90;;;;;;5048680;28;20470;-71
2022/06/04 12:29:34;;;;;;;11.03;10.17;;;22.50;99.90;;;;;;5048819;28;20465;-71
2022/06/04 12:32:02;;;;;;;10.80;10.00;;;23.10;99.90;;;;;;5049009;28;20556;-71
2022/06/04 12:34:36;;;;;;;13.23;12.00;;;23.50;99.90;;;;;;5049130;28;20495;-71
2022/06/04 12:37:05;;;;;;;10.70;9.73;;;23.70;99.90;;;;;;5046608;28;20462;-71
2022/06/04 12:39:38;;;;;;;10.73;9.83;;;23.90;99.90;;;;;;5047795;28;20466;-72
2022/06/04 12:42:14;;;;;;;10.90;9.80;;;23.90;99.90;;;;;;5048646;28;20464;-71
2022/06/04 12:44:44;;;;;;;9.70;8.80;;;24.10;99.90;;;;;;5038685;28;20488;-70
2022/06/04 12:47:13;;;;;;;12.97;11.77;;;24.30;99.90;;;;;;5028683;28;20570;-71
2022/06/04 12:49:52;;;;;;;10.47;9.47;;;24.30;99.90;;;;;;5028355;28;20491;-71
2022/06/04 12:52:35;;;;;;;11.30;10.20;;;24.30;99.90;;;;;;5028642;28;20478;-71
2022/06/04 12:55:11;;;;;;;10.30;9.30;;;24.40;99.90;;;;;;5028659;28;20492;-70
2022/06/04 12:57:48;;;;;;;10.10;9.30;;;24.40;99.90;;;;;;5028272;28;20456;-71
2022/06/04 13:00:29;;;;;;;8.97;8.13;;;24.40;99.90;;;;;;5027659;28;20462;-71
2022/06/04 13:02:59;;;;;;;9.33;8.53;;;24.40;99.90;;;;;;5027625;28;20855;-71
2022/06/04 13:05:28;;;;;;;9.07;8.37;;;24.50;99.90;;;;;;5028980;28;20960;-71
2022/06/04 13:08:02;;;;;;;8.50;7.87;;;24.60;99.90;;;;;;5028657;28;20456;-71
2022/06/04 13:10:41;;;;;;;8.33;7.73;;;24.70;99.90;;;;;;5030237;28;20455;-70
2022/06/04 13:13:20;;;;;;;7.27;6.67;;;24.70;99.90;;;;;;5032431;28;20480;-71
2022/06/04 13:15:53;;;;;;;8.57;7.87;;;24.60;99.90;;;;;;5032277;28;20483;-70
2022/06/04 13:18:24;;;;;;;10.33;9.43;;;24.40;99.90;;;;;;5032169;28;20464;-73
2022/06/04 13:20:54;;;;;;;9.90;8.90;;;24.40;99.90;;;;;;5032607;28;20456;-71